Time;durP1;ratioP1;P1;durP2;ratioP2;P2;SDS_P1;SDS_P2;PMS_P1;PMS_P2;Temp;Humidity;BMP_temperature;BMP_pressure;BME280_temperature;BME280_humidity;BME280_pressure;Samples;Min_cycle;Max_cycle;Signal;HPM_P1;HPM_P2
2022/08/06 00:01:45;;;;;;;2.00;0.70;;;14.40;99.90;;;;;;4993813;28;20133;-72
2022/08/06 00:04:11;;;;;;;2.72;0.68;;;14.40;99.90;;;;;;4976756;28;20081;-72
2022/08/06 00:06:37;;;;;;;1.52;0.63;;;14.40;99.90;;;;;;4992802;28;20046;-72
2022/08/06 00:09:02;;;;;;;2.80;0.70;;;14.40;99.90;;;;;;4995298;28;20053;-72
2022/08/06 00:11:28;;;;;;;1.38;0.60;;;14.40;99.90;;;;;;4995969;28;20058;-72
2022/08/06 00:13:54;;;;;;;2.03;0.60;;;14.30;99.90;;;;;;4998083;28;20051;-72
2022/08/06 00:16:20;;;;;;;1.17;0.60;;;14.30;99.90;;;;;;4996792;28;20053;-72
2022/08/06 00:18:45;;;;;;;0.85;0.60;;;14.30;99.90;;;;;;4980188;28;20050;-72
2022/08/06 00:21:11;;;;;;;2.00;0.70;;;14.20;99.90;;;;;;4981068;28;20073;-72
2022/08/06 00:23:37;;;;;;;3.03;0.60;;;14.20;99.90;;;;;;4996229;28;20448;-72
2022/08/06 00:26:03;;;;;;;1.35;0.70;;;14.20;99.90;;;;;;4980203;28;20042;-72
2022/08/06 00:28:28;;;;;;;3.50;0.55;;;14.20;99.90;;;;;;4996314;28;20185;-72
2022/08/06 00:30:54;;;;;;;4.22;0.70;;;14.20;99.90;;;;;;4997287;28;20047;-72
2022/08/06 00:33:20;;;;;;;0.80;0.52;;;14.10;99.90;;;;;;4996052;28;20050;-72
2022/08/06 00:35:45;;;;;;;1.73;0.70;;;14.10;99.90;;;;;;4997588;28;20374;-73
2022/08/06 00:38:12;;;;;;;0.63;0.40;;;14.00;99.90;;;;;;4979866;28;20050;-72
2022/08/06 00:40:38;;;;;;;1.48;0.60;;;14.00;99.90;;;;;;4996961;28;20057;-72
2022/08/06 00:43:05;;;;;;;1.48;0.52;;;14.00;99.90;;;;;;4997827;28;20042;-72
2022/08/06 00:45:34;;;;;;;3.75;0.60;;;13.90;99.90;;;;;;4979818;28;20058;-72
2022/08/06 00:48:00;;;;;;;2.35;0.50;;;13.90;99.90;;;;;;4996188;28;20046;-71
2022/08/06 00:50:27;;;;;;;2.10;0.70;;;13.90;99.90;;;;;;4995984;28;20116;-72
2022/08/06 00:52:53;;;;;;;1.67;0.60;;;13.90;99.90;;;;;;4995848;28;20057;-71
2022/08/06 00:55:19;;;;;;;2.75;0.60;;;13.90;99.90;;;;;;4979605;28;20082;-72
2022/08/06 00:57:45;;;;;;;1.70;0.50;;;13.90;99.90;;;;;;4996724;28;20109;-72
2022/08/06 01:00:12;;;;;;;1.27;0.50;;;13.90;99.90;;;;;;4996286;28;20499;-72
2022/08/06 01:02:38;;;;;;;0.98;0.50;;;13.90;99.90;;;;;;4996723;28;20097;-71
2022/08/06 01:05:04;;;;;;;1.70;0.50;;;13.80;99.90;;;;;;4996669;28;20151;-71
2022/08/06 01:07:30;;;;;;;1.48;0.60;;;13.80;99.90;;;;;;4996615;28;20043;-71
2022/08/06 01:09:56;;;;;;;2.17;0.85;;;13.80;99.90;;;;;;4979047;28;20100;-72
2022/08/06 01:12:21;;;;;;;0.77;0.52;;;13.80;99.90;;;;;;4995179;28;20061;-72
2022/08/06 01:14:47;;;;;;;1.17;0.50;;;13.80;99.90;;;;;;4996779;28;20054;-72
2022/08/06 01:17:30;;;;;;;3.20;0.50;;;13.80;99.90;;;;;;4995386;28;20050;-72
2022/08/06 01:20:12;;;;;;;0.57;0.50;;;13.80;99.90;;;;;;4995430;28;20129;-72
2022/08/06 01:22:53;;;;;;;1.63;0.60;;;13.80;99.90;;;;;;4996189;28;20137;-72
2022/08/06 01:25:53;;;;;;;1.58;0.50;;;13.70;99.90;;;;;;4995444;28;20092;-72
2022/08/06 01:28:25;;;;;;;1.52;0.40;;;13.70;99.90;;;;;;4995499;28;20050;-72
2022/08/06 01:30:55;;;;;;;1.17;0.47;;;13.70;99.90;;;;;;4996277;28;20043;-72
2022/08/06 01:33:28;;;;;;;2.40;0.50;;;13.70;99.90;;;;;;4996135;28;20057;-71
2022/08/06 01:35:58;;;;;;;1.17;0.40;;;13.70;99.90;;;;;;4996662;28;20120;-72
2022/08/06 01:38:34;;;;;;;1.75;0.60;;;13.70;99.90;;;;;;4995835;28;20054;-72
2022/08/06 01:41:04;;;;;;;1.38;0.63;;;13.60;99.90;;;;;;4996501;28;20051;-71
2022/08/06 01:43:32;;;;;;;1.00;0.50;;;13.60;99.90;;;;;;4978996;28;20059;-71
2022/08/06 01:46:00;;;;;;;1.77;1.67;;;13.60;99.90;;;;;;4994697;28;20050;-71
2022/08/06 01:48:27;;;;;;;0.88;0.47;;;13.60;99.90;;;;;;4996641;28;20077;-71
2022/08/06 01:50:55;;;;;;;1.52;0.60;;;13.50;99.90;;;;;;4978865;28;20042;-71
2022/08/06 01:53:36;;;;;;;1.65;0.60;;;13.50;99.90;;;;;;4995722;28;20053;-72
2022/08/06 01:56:04;;;;;;;3.00;0.43;;;13.50;99.90;;;;;;4994356;28;20086;-72
2022/08/06 01:58:38;;;;;;;2.15;0.65;;;13.40;99.90;;;;;;4994488;28;20042;-71
2022/08/06 02:01:08;;;;;;;1.83;0.73;;;13.40;99.90;;;;;;4994621;28;20051;-71
2022/08/06 02:03:39;;;;;;;1.95;0.60;;;13.40;99.90;;;;;;4995273;28;20047;-71
2022/08/06 02:06:07;;;;;;;1.98;0.50;;;13.40;99.90;;;;;;4995207;28;20561;-72
2022/08/06 02:08:36;;;;;;;1.83;0.40;;;13.40;99.90;;;;;;4994326;28;20050;-72
2022/08/06 02:11:04;;;;;;;1.52;0.40;;;13.30;99.90;;;;;;4993969;28;20088;-72
2022/08/06 02:13:32;;;;;;;1.40;0.32;;;13.30;99.90;;;;;;4995195;28;20077;-71
2022/08/06 02:15:59;;;;;;;0.75;0.40;;;13.30;99.90;;;;;;4995280;28;20046;-71
2022/08/06 02:18:29;;;;;;;0.90;0.30;;;13.20;99.90;;;;;;4994086;28;20054;-72
2022/08/06 02:20:58;;;;;;;1.23;0.40;;;13.20;99.90;;;;;;4994257;28;20054;-72
2022/08/06 02:23:26;;;;;;;0.75;0.47;;;13.10;99.90;;;;;;4995247;28;20042;-72
2022/08/06 02:25:54;;;;;;;1.10;0.50;;;13.10;99.90;;;;;;4995312;28;20061;-73
2022/08/06 02:28:23;;;;;;;1.77;0.40;;;13.10;99.90;;;;;;4995069;28;20046;-72
2022/08/06 02:30:51;;;;;;;2.00;0.60;;;13.00;99.90;;;;;;4993856;28;20051;-71
2022/08/06 02:33:17;;;;;;;0.98;0.60;;;13.00;99.90;;;;;;4993606;28;20050;-72
2022/08/06 02:36:06;;;;;;;1.08;0.40;;;12.90;99.90;;;;;;4995722;28;20077;-72
2022/08/06 02:38:48;;;;;;;0.80;0.40;;;12.90;99.90;;;;;;4995064;28;20107;-71
2022/08/06 02:41:37;;;;;;;1.45;0.47;;;12.90;99.90;;;;;;4994125;28;20047;-72
2022/08/06 02:44:12;;;;;;;0.60;0.50;;;12.80;99.90;;;;;;4995418;28;20085;-72
2022/08/06 02:46:54;;;;;;;1.25;0.57;;;12.80;99.90;;;;;;4977669;28;20497;-72
2022/08/06 02:49:23;;;;;;;0.93;0.70;;;12.80;99.90;;;;;;4995296;28;20101;-72
2022/08/06 02:51:58;;;;;;;0.82;0.60;;;12.80;99.90;;;;;;4994396;28;20495;-72
2022/08/06 02:54:34;;;;;;;1.27;0.70;;;12.70;99.90;;;;;;4994611;28;20042;-72
2022/08/06 02:57:03;;;;;;;0.90;0.60;;;12.70;99.90;;;;;;4993964;28;20386;-72
2022/08/06 02:59:35;;;;;;;1.40;0.77;;;12.70;99.90;;;;;;4994449;28;20046;-72
2022/08/06 03:02:05;;;;;;;1.52;0.70;;;12.70;99.90;;;;;;4993668;28;20558;-71
2022/08/06 03:04:33;;;;;;;1.85;0.90;;;12.60;99.90;;;;;;4995069;28;20379;-71
2022/08/06 03:07:05;;;;;;;2.70;0.98;;;12.60;99.90;;;;;;4993644;28;20069;-72
2022/08/06 03:09:31;;;;;;;1.17;0.90;;;12.60;99.90;;;;;;4977350;28;20046;-72
2022/08/06 03:11:57;;;;;;;1.45;0.85;;;12.60;99.90;;;;;;4994902;28;20058;-72
2022/08/06 03:14:24;;;;;;;1.88;1.00;;;12.60;99.90;;;;;;4978171;28;20046;-72
2022/08/06 03:16:51;;;;;;;3.00;1.10;;;12.60;99.90;;;;;;4993272;28;20052;-71
2022/08/06 03:19:19;;;;;;;1.15;0.90;;;12.50;99.90;;;;;;4994159;28;20101;-71
2022/08/06 03:21:45;;;;;;;1.67;0.93;;;12.50;99.90;;;;;;4994452;28;20081;-72
2022/08/06 03:24:13;;;;;;;2.25;1.00;;;12.50;99.90;;;;;;4994335;28;20498;-72
2022/08/06 03:26:40;;;;;;;1.60;0.95;;;12.50;99.90;;;;;;4977204;28;20050;-72
2022/08/06 03:29:06;;;;;;;1.80;1.10;;;12.50;99.90;;;;;;4994362;28;20047;-72
2022/08/06 03:31:32;;;;;;;3.00;1.35;;;12.50;99.90;;;;;;4994278;28;20054;-72
2022/08/06 03:33:59;;;;;;;1.52;0.95;;;12.50;99.90;;;;;;4993139;28;20042;-72
2022/08/06 03:36:26;;;;;;;1.50;1.00;;;12.50;99.90;;;;;;4994187;28;20100;-72
2022/08/06 03:39:01;;;;;;;1.75;0.88;;;12.40;99.90;;;;;;4993208;28;20426;-72
2022/08/06 03:41:34;;;;;;;1.88;0.90;;;12.40;99.90;;;;;;4993719;28;20172;-72
2022/08/06 03:44:00;;;;;;;1.33;1.05;;;12.40;99.90;;;;;;4996243;28;20042;-72
2022/08/06 03:46:33;;;;;;;1.50;1.13;;;12.40;99.90;;;;;;4998201;28;20061;-72
2022/08/06 03:49:03;;;;;;;3.95;0.90;;;12.40;99.90;;;;;;4997548;28;20137;-72
2022/08/06 03:51:30;;;;;;;1.33;1.23;;;12.40;99.90;;;;;;4998179;28;20072;-72
2022/08/06 03:53:59;;;;;;;1.42;1.00;;;12.40;99.90;;;;;;4998097;28;20054;-72
2022/08/06 03:56:27;;;;;;;2.33;1.10;;;12.40;99.90;;;;;;4998022;28;20468;-72
2022/08/06 03:58:56;;;;;;;3.22;0.90;;;12.40;99.90;;;;;;4997952;28;20050;-71
2022/08/06 04:01:24;;;;;;;1.45;1.10;;;12.30;99.90;;;;;;4997972;28;20054;-71
2022/08/06 04:03:52;;;;;;;2.13;1.02;;;12.30;99.90;;;;;;4997916;28;20050;-71
2022/08/06 04:06:20;;;;;;;1.08;0.90;;;12.30;99.90;;;;;;4996946;28;20442;-71
2022/08/06 04:08:46;;;;;;;2.30;1.00;;;12.30;99.90;;;;;;4980755;28;20151;-71
2022/08/06 04:11:12;;;;;;;1.17;0.90;;;12.30;99.90;;;;;;4997815;28;20505;-71
2022/08/06 04:13:40;;;;;;;2.88;0.90;;;12.30;99.90;;;;;;4997757;28;20046;-71
2022/08/06 04:16:07;;;;;;;1.67;0.90;;;12.30;99.90;;;;;;4996456;28;20101;-72
2022/08/06 04:18:36;;;;;;;1.77;1.05;;;12.30;99.90;;;;;;4996709;28;20391;-72
2022/08/06 04:21:06;;;;;;;1.85;1.00;;;12.30;99.90;;;;;;4996324;28;20054;-72
2022/08/06 04:23:32;;;;;;;1.17;0.80;;;12.30;99.90;;;;;;4996331;28;20046;-72
2022/08/06 04:26:01;;;;;;;1.02;0.90;;;12.20;99.90;;;;;;4997465;28;20136;-72
2022/08/06 04:28:29;;;;;;;1.95;1.23;;;12.30;99.90;;;;;;4997283;28;20050;-72
2022/08/06 04:30:58;;;;;;;3.00;1.38;;;12.20;99.90;;;;;;4996727;28;20200;-72
2022/08/06 04:33:26;;;;;;;2.47;1.17;;;12.20;99.90;;;;;;4997388;28;20391;-72
2022/08/06 04:35:52;;;;;;;1.83;1.20;;;12.20;99.90;;;;;;4997166;28;20054;-72
2022/08/06 04:38:20;;;;;;;2.13;0.90;;;12.30;99.90;;;;;;4997342;28;20097;-72
2022/08/06 04:40:46;;;;;;;1.23;0.95;;;12.30;99.90;;;;;;4980068;28;20046;-72
2022/08/06 04:43:12;;;;;;;1.45;1.00;;;12.30;99.90;;;;;;4996077;28;20089;-73
2022/08/06 04:45:40;;;;;;;1.45;1.00;;;12.30;99.90;;;;;;4997439;28;20042;-72
2022/08/06 04:48:10;;;;;;;4.47;0.80;;;12.30;99.90;;;;;;4997377;28;20077;-72
2022/08/06 04:50:37;;;;;;;1.10;0.88;;;12.20;99.90;;;;;;4997111;28;20125;-73
2022/08/06 04:53:35;;;;;;;2.20;0.90;;;12.20;99.90;;;;;;4995764;28;20050;-72
2022/08/06 04:56:01;;;;;;;1.00;0.85;;;12.20;99.90;;;;;;4982292;28;20464;-72
2022/08/06 04:58:26;;;;;;;2.25;1.00;;;12.30;99.90;;;;;;4995929;28;20104;-72
2022/08/06 05:00:52;;;;;;;1.52;0.85;;;12.30;99.90;;;;;;4995636;28;20038;-73
2022/08/06 05:03:18;;;;;;;5.35;0.85;;;12.30;99.90;;;;;;4995376;28;20057;-73
2022/08/06 05:06:15;;;;;;;1.70;0.88;;;12.30;99.90;;;;;;4997364;28;20129;-73
2022/08/06 05:08:43;;;;;;;1.25;0.80;;;12.30;99.90;;;;;;4995566;28;20058;-72
2022/08/06 05:11:25;;;;;;;1.52;0.80;;;12.30;99.90;;;;;;4996428;28;20065;-72
2022/08/06 05:13:57;;;;;;;1.40;0.80;;;12.30;99.90;;;;;;4997261;28;20054;-73
2022/08/06 05:16:24;;;;;;;4.43;0.90;;;12.40;99.90;;;;;;4995952;28;20526;-72
2022/08/06 05:18:57;;;;;;;4.03;0.98;;;12.40;99.90;;;;;;4979336;28;20085;-72
2022/08/06 05:21:31;;;;;;;;;;;12.40;99.90;;;;;;4997014;28;20487;-73
2022/08/06 05:23:57;;;;;;;2.92;0.88;;;12.50;99.90;;;;;;4997357;28;19928;-72
2022/08/06 05:26:23;;;;;;;3.85;1.15;;;12.60;99.90;;;;;;4996543;28;20553;-72
2022/08/06 05:28:49;;;;;;;1.15;0.90;;;12.60;99.90;;;;;;4996306;28;20054;-72
2022/08/06 05:31:15;;;;;;;2.72;0.93;;;12.70;99.90;;;;;;4995941;28;20042;-73
2022/08/06 05:33:41;;;;;;;1.50;0.80;;;12.80;99.90;;;;;;4995121;28;20050;-72
2022/08/06 05:36:10;;;;;;;3.00;1.00;;;12.90;99.90;;;;;;4996244;28;20127;-72
2022/08/06 05:38:40;;;;;;;1.77;0.80;;;12.90;99.90;;;;;;4996247;28;20139;-72
2022/08/06 05:41:08;;;;;;;1.95;1.13;;;13.00;99.90;;;;;;4995987;28;20084;-72
2022/08/06 05:43:34;;;;;;;1.98;0.90;;;13.10;99.90;;;;;;4978851;28;20054;-72
2022/08/06 05:46:15;;;;;;;2.55;0.80;;;13.20;99.90;;;;;;4995632;28;20068;-72
2022/08/06 05:48:45;;;;;;;1.13;0.70;;;13.30;99.90;;;;;;4995721;28;20391;-73
2022/08/06 05:51:33;;;;;;;3.17;0.80;;;13.40;99.90;;;;;;4995873;28;20070;-72
2022/08/06 05:54:05;;;;;;;2.97;1.30;;;13.50;99.90;;;;;;4995370;28;20529;-73
2022/08/06 05:56:37;;;;;;;1.52;0.70;;;13.60;99.90;;;;;;4995999;28;20457;-73
2022/08/06 05:59:06;;;;;;;1.95;0.75;;;13.70;99.90;;;;;;4994451;28;20057;-73
2022/08/06 06:01:35;;;;;;;2.13;0.82;;;13.70;99.90;;;;;;4994602;28;20050;-72
2022/08/06 06:04:02;;;;;;;4.13;0.85;;;13.80;99.90;;;;;;4995524;28;20399;-72
2022/08/06 06:06:28;;;;;;;3.38;0.80;;;13.80;99.90;;;;;;4994991;28;20116;-72
2022/08/06 06:08:54;;;;;;;2.03;1.13;;;13.90;99.90;;;;;;4978310;28;20050;-73
2022/08/06 06:11:20;;;;;;;2.08;0.80;;;14.00;99.90;;;;;;4961681;28;20060;-73
2022/08/06 06:13:47;;;;;;;2.20;0.70;;;14.00;99.90;;;;;;4994684;28;20125;-72
2022/08/06 06:16:24;;;;;;;2.53;0.80;;;14.00;99.90;;;;;;4995308;28;20129;-72
2022/08/06 06:19:16;;;;;;;2.22;0.80;;;14.00;99.90;;;;;;4995193;28;20050;-72
2022/08/06 06:21:54;;;;;;;1.95;0.70;;;14.00;99.90;;;;;;4995845;28;20065;-72
2022/08/06 06:24:28;;;;;;;2.03;0.70;;;14.00;99.90;;;;;;4995094;28;20042;-73
2022/08/06 06:27:00;;;;;;;1.40;0.80;;;14.10;99.90;;;;;;4993953;28;20046;-73
2022/08/06 06:29:48;;;;;;;0.98;0.60;;;14.10;99.90;;;;;;4993888;28;20086;-73
2022/08/06 06:32:22;;;;;;;0.85;0.68;;;14.20;99.90;;;;;;4994367;28;20133;-73
2022/08/06 06:34:59;;;;;;;1.65;0.63;;;14.20;99.90;;;;;;4995607;28;20057;-73
2022/08/06 06:37:48;;;;;;;0.70;0.60;;;14.30;99.90;;;;;;4994545;28;20054;-73
2022/08/06 06:40:34;;;;;;;1.10;0.50;;;14.40;99.90;;;;;;4993973;28;20042;-74
2022/08/06 06:43:37;;;;;;;1.88;0.70;;;14.60;99.90;;;;;;4978541;28;20114;-73
2022/08/06 06:46:33;;;;;;;3.17;0.45;;;14.70;99.90;;;;;;4994621;28;20050;-73
2022/08/06 06:49:12;;;;;;;0.70;0.40;;;15.00;99.90;;;;;;4993475;28;20587;-74
2022/08/06 06:51:46;;;;;;;1.75;0.30;;;15.20;99.90;;;;;;4994057;28;20112;-71
2022/08/06 06:54:20;;;;;;;1.90;0.45;;;15.40;99.90;;;;;;4995509;28;20051;-75
2022/08/06 06:56:48;;;;;;;1.65;0.30;;;15.50;99.90;;;;;;4993386;28;20046;-73
2022/08/06 06:59:21;;;;;;;1.35;0.40;;;15.50;99.90;;;;;;4994633;28;20046;-72
2022/08/06 07:01:48;;;;;;;1.13;0.20;;;15.60;99.90;;;;;;4994194;28;20491;-73
2022/08/06 07:04:17;;;;;;;0.77;0.20;;;15.60;99.90;;;;;;4993849;28;20082;-73
2022/08/06 07:06:46;;;;;;;1.05;0.30;;;15.60;99.90;;;;;;4994281;28;20042;-73
2022/08/06 07:09:18;;;;;;;1.35;0.47;;;15.50;99.90;;;;;;4994445;28;20046;-72
2022/08/06 07:11:45;;;;;;;0.38;0.20;;;15.60;99.90;;;;;;4977047;28;20054;-74
2022/08/06 07:14:14;;;;;;;1.27;0.30;;;15.60;99.90;;;;;;4977042;28;20395;-75
2022/08/06 07:16:41;;;;;;;0.90;0.30;;;15.60;99.90;;;;;;4977354;28;20074;-77
2022/08/06 07:19:08;;;;;;;1.85;0.40;;;15.60;99.90;;;;;;4992542;28;20042;-74
2022/08/06 07:21:35;;;;;;;1.48;0.20;;;15.70;99.90;;;;;;4978219;28;20363;-75
2022/08/06 07:24:02;;;;;;;2.33;0.40;;;15.70;99.90;;;;;;4993660;28;20133;-75
2022/08/06 07:26:29;;;;;;;0.77;0.30;;;15.70;99.90;;;;;;4993520;28;20120;-75
2022/08/06 07:28:57;;;;;;;0.20;0.20;;;15.70;99.90;;;;;;4994291;28;20057;-74
2022/08/06 07:31:26;;;;;;;1.25;0.28;;;15.80;99.90;;;;;;4994314;28;20141;-74
2022/08/06 07:33:53;;;;;;;1.45;0.30;;;15.70;99.90;;;;;;4993097;28;20046;-74
2022/08/06 07:36:23;;;;;;;0.93;0.30;;;15.80;99.90;;;;;;4993990;28;20545;-74
2022/08/06 07:38:52;;;;;;;1.65;0.30;;;15.80;99.90;;;;;;4977466;28;20133;-74
2022/08/06 07:41:21;;;;;;;0.85;0.30;;;15.80;99.90;;;;;;4993783;28;20061;-75
2022/08/06 07:43:52;;;;;;;0.70;0.30;;;15.80;99.90;;;;;;4993579;28;20061;-76
2022/08/06 07:46:22;;;;;;;1.00;0.32;;;15.90;99.90;;;;;;4976729;28;20088;-76
2022/08/06 07:48:53;;;;;;;0.68;0.20;;;15.90;99.90;;;;;;4993393;28;20050;-77
2022/08/06 07:51:23;;;;;;;1.05;0.30;;;16.00;99.90;;;;;;4992399;28;20050;-77
2022/08/06 07:53:49;;;;;;;1.60;0.45;;;16.10;99.90;;;;;;4976530;28;20046;-78
2022/08/06 07:56:16;;;;;;;0.85;0.40;;;16.10;99.90;;;;;;4991769;28;20045;-77
2022/08/06 07:58:42;;;;;;;0.93;0.22;;;16.20;99.90;;;;;;4976692;28;20054;-78
2022/08/06 08:01:08;;;;;;;1.50;0.40;;;16.30;99.90;;;;;;4976021;28;20042;-79
2022/08/06 08:06:24;;;;;;;1.25;0.32;;;16.40;99.90;;;;;;4992726;28;20043;-77
2022/08/06 08:08:52;;;;;;;0.43;0.20;;;16.50;99.90;;;;;;4992443;28;20050;-80
2022/08/06 08:11:18;;;;;;;0.52;0.17;;;16.50;99.90;;;;;;4991880;28;20055;-79
2022/08/06 08:13:44;;;;;;;2.85;0.30;;;16.60;99.90;;;;;;4992471;28;20046;-80
2022/08/06 08:16:14;;;;;;;1.52;0.30;;;16.70;99.90;;;;;;4993393;28;20043;-79
2022/08/06 08:18:40;;;;;;;0.75;0.22;;;16.80;99.90;;;;;;4992548;28;20053;-78
2022/08/06 08:21:06;;;;;;;1.23;0.25;;;16.90;99.90;;;;;;4992578;28;20042;-80
2022/08/06 08:23:34;;;;;;;1.25;0.20;;;16.90;99.90;;;;;;4992386;28;20093;-81
2022/08/06 08:26:02;;;;;;;1.15;0.20;;;17.00;99.90;;;;;;4976047;28;20483;-79
2022/08/06 08:28:29;;;;;;;2.08;0.30;;;17.10;99.90;;;;;;4992040;28;20100;-81
2022/08/06 08:30:58;;;;;;;0.65;0.20;;;17.20;99.90;;;;;;4963104;28;20046;-81
2022/08/06 08:33:24;;;;;;;1.60;0.20;;;17.30;99.90;;;;;;4979757;28;20209;-83
2022/08/06 08:35:50;;;;;;;0.93;0.20;;;17.30;99.90;;;;;;4980066;28;20057;-80
2022/08/06 08:38:15;;;;;;;1.48;0.25;;;17.40;99.90;;;;;;4996563;28;20050;-77
2022/08/06 08:40:42;;;;;;;1.00;0.20;;;17.50;99.90;;;;;;4979194;28;20188;-78
2022/08/06 08:43:11;;;;;;;1.13;0.15;;;17.50;99.90;;;;;;4978986;28;20054;-79
2022/08/06 08:45:39;;;;;;;1.83;0.28;;;17.60;99.90;;;;;;4996015;28;20038;-83
2022/08/06 08:48:06;;;;;;;0.98;0.30;;;17.60;99.90;;;;;;4995373;28;20482;-81
2022/08/06 08:50:35;;;;;;;0.77;0.30;;;17.60;99.90;;;;;;4995234;28;20070;-76
2022/08/06 08:53:08;;;;;;;2.00;0.30;;;17.60;99.90;;;;;;4995844;28;20053;-76
2022/08/06 08:55:34;;;;;;;0.90;0.20;;;17.60;99.90;;;;;;4994659;28;20562;-82
2022/08/06 08:58:01;;;;;;;1.92;0.20;;;17.60;99.90;;;;;;4963698;28;20092;-82
2022/08/06 09:00:27;;;;;;;1.00;0.20;;;17.60;99.90;;;;;;4978939;28;20050;-82
2022/08/06 09:02:53;;;;;;;0.90;0.28;;;17.50;99.90;;;;;;4978573;28;20042;-81
2022/08/06 09:05:20;;;;;;;0.70;0.20;;;17.50;99.90;;;;;;4978999;28;20124;-81
2022/08/06 09:07:46;;;;;;;0.82;0.28;;;17.50;99.90;;;;;;4995149;28;20046;-82
2022/08/06 09:10:12;;;;;;;0.57;0.20;;;17.50;99.90;;;;;;4978739;28;20101;-81
2022/08/06 09:12:38;;;;;;;2.50;0.22;;;17.50;99.90;;;;;;4979298;28;20064;-79
2022/08/06 09:15:04;;;;;;;0.43;0.30;;;17.60;99.90;;;;;;4995251;28;20128;-78
2022/08/06 09:17:30;;;;;;;1.35;0.20;;;17.70;99.90;;;;;;4995383;28;20042;-77
2022/08/06 09:19:56;;;;;;;1.27;0.30;;;17.70;99.90;;;;;;4979777;28;20471;-78
2022/08/06 09:22:22;;;;;;;1.17;0.40;;;17.70;99.90;;;;;;4979394;28;20042;-79
2022/08/06 09:24:47;;;;;;;2.15;0.68;;;17.70;99.90;;;;;;4995429;28;20614;-74
2022/08/06 09:27:17;;;;;;;0.65;0.30;;;17.70;99.90;;;;;;4963242;28;20050;-79
2022/08/06 09:29:55;;;;;;;1.35;0.40;;;17.70;99.90;;;;;;4979479;28;20081;-77
2022/08/06 09:32:39;;;;;;;1.85;0.40;;;17.80;99.90;;;;;;4997048;28;20384;-77
2022/08/06 09:35:30;;;;;;;0.82;0.35;;;18.00;99.90;;;;;;4995376;28;20125;-82
2022/08/06 09:38:04;;;;;;;0.50;0.30;;;18.10;99.90;;;;;;4995936;28;20093;-85
2022/08/06 09:40:30;;;;;;;2.53;0.30;;;18.10;99.90;;;;;;4962832;28;20141;-78
2022/08/06 09:42:56;;;;;;;1.63;0.35;;;18.10;99.90;;;;;;4962244;28;20494;-81
2022/08/06 09:45:24;;;;;;;1.17;0.45;;;18.00;99.90;;;;;;4978967;28;20509;-76
2022/08/06 09:48:02;;;;;;;2.78;0.50;;;18.00;99.90;;;;;;4994854;28;20117;-79
2022/08/06 09:50:36;;;;;;;1.92;0.45;;;17.90;99.90;;;;;;4994788;28;20050;-77
2022/08/06 09:53:02;;;;;;;1.83;0.50;;;17.90;99.90;;;;;;4995040;28;20046;-77
2022/08/06 09:55:30;;;;;;;1.20;0.75;;;17.80;99.90;;;;;;4995150;28;20057;-78
2022/08/06 09:57:57;;;;;;;1.83;0.40;;;17.80;99.90;;;;;;4994943;28;20398;-79
2022/08/06 10:00:31;;;;;;;1.95;0.40;;;17.80;99.90;;;;;;4994904;28;20042;-79
2022/08/06 10:02:59;;;;;;;1.55;0.50;;;17.80;99.90;;;;;;4995172;28;20050;-78
2022/08/06 10:05:26;;;;;;;1.73;0.50;;;17.80;99.90;;;;;;4995571;28;20473;-78
2022/08/06 10:08:08;;;;;;;3.53;0.60;;;17.80;99.90;;;;;;4978493;28;20140;-78
2022/08/06 10:10:41;;;;;;;1.55;0.60;;;17.90;99.90;;;;;;4994400;28;20050;-77
2022/08/06 10:13:19;;;;;;;1.15;0.55;;;17.90;99.90;;;;;;4994941;28;20502;-77
2022/08/06 10:15:48;;;;;;;1.65;0.50;;;18.00;99.90;;;;;;4994574;28;20502;-77
2022/08/06 10:18:36;;;;;;;2.10;0.98;;;18.10;99.90;;;;;;4978518;28;20081;-80
2022/08/06 10:21:07;;;;;;;1.40;0.40;;;18.10;99.90;;;;;;4994377;28;20096;-77
2022/08/06 10:23:36;;;;;;;2.70;0.40;;;18.20;99.90;;;;;;4978230;28;20544;-78
2022/08/06 10:26:13;;;;;;;3.17;0.47;;;18.30;99.90;;;;;;4994549;28;20050;-77
2022/08/06 10:28:43;;;;;;;1.45;0.50;;;18.30;99.90;;;;;;4994664;28;20042;-78
2022/08/06 10:31:11;;;;;;;2.63;0.50;;;18.30;99.90;;;;;;4994589;28;20135;-78
2022/08/06 10:33:49;;;;;;;2.00;0.57;;;18.30;99.90;;;;;;4993928;28;20057;-78
2022/08/06 10:36:18;;;;;;;2.28;0.60;;;18.20;99.90;;;;;;4995945;28;20050;-77
2022/08/06 10:38:50;;;;;;;2.47;0.60;;;18.20;99.90;;;;;;4962330;28;20050;-78
2022/08/06 10:41:17;;;;;;;0.88;0.50;;;18.20;99.90;;;;;;4994628;28;20056;-80
2022/08/06 10:43:43;;;;;;;0.98;0.45;;;18.20;99.90;;;;;;4978112;28;20046;-78
2022/08/06 10:46:17;;;;;;;1.35;0.50;;;18.30;99.90;;;;;;4961560;28;20046;-78
2022/08/06 10:48:46;;;;;;;2.00;0.60;;;18.40;99.90;;;;;;4994017;28;20479;-78
2022/08/06 10:51:14;;;;;;;2.67;0.85;;;18.40;99.90;;;;;;4994207;28;20133;-79
2022/08/06 10:53:42;;;;;;;1.75;0.60;;;18.60;99.90;;;;;;4994535;28;20046;-78
2022/08/06 10:56:10;;;;;;;0.98;0.50;;;18.60;99.90;;;;;;4977597;28;20053;-81
2022/08/06 10:58:37;;;;;;;0.95;0.50;;;18.60;99.90;;;;;;4977901;28;20138;-78
2022/08/06 11:01:08;;;;;;;1.85;0.60;;;18.60;99.90;;;;;;4978149;28;20043;-78
2022/08/06 11:03:50;;;;;;;1.98;0.60;;;18.60;99.90;;;;;;4977203;28;20132;-83
2022/08/06 11:06:57;;;;;;;1.00;0.50;;;18.70;98.30;;;;;;4993732;28;20042;-78
2022/08/06 11:10:00;;;;;;;0.93;0.70;;;18.70;99.40;;;;;;4982013;28;20050;-79
2022/08/06 11:12:56;;;;;;;1.50;0.60;;;18.80;99.70;;;;;;4993694;28;20094;-79
2022/08/06 11:15:23;;;;;;;0.90;0.60;;;19.00;98.80;;;;;;4993877;28;20497;-81
2022/08/06 11:18:02;;;;;;;1.55;0.50;;;19.10;98.70;;;;;;4961612;28;20058;-78
2022/08/06 11:20:36;;;;;;;1.65;0.55;;;19.20;98.40;;;;;;4994477;28;20042;-80
2022/08/06 11:23:21;;;;;;;1.17;0.73;;;19.30;97.60;;;;;;4993378;28;20553;-78
2022/08/06 11:25:52;;;;;;;0.70;0.60;;;19.40;97.30;;;;;;4993470;28;20046;-81
2022/08/06 11:28:19;;;;;;;1.00;0.60;;;19.50;96.40;;;;;;4978175;28;20401;-78
2022/08/06 11:30:53;;;;;;;1.30;0.70;;;19.50;95.90;;;;;;4993411;28;20046;-80
2022/08/06 11:33:38;;;;;;;1.15;0.60;;;19.60;94.90;;;;;;4993459;28;20560;-79
2022/08/06 11:36:09;;;;;;;2.88;0.90;;;19.60;94.80;;;;;;4992487;28;20486;-78
2022/08/06 11:38:47;;;;;;;1.50;0.60;;;19.50;94.70;;;;;;4978020;28;20101;-81
2022/08/06 11:41:27;;;;;;;1.60;1.00;;;19.60;95.00;;;;;;4993819;28;20074;-78
2022/08/06 11:43:53;;;;;;;2.28;1.00;;;19.70;95.50;;;;;;4993108;28;20042;-78
2022/08/06 11:46:21;;;;;;;1.95;0.90;;;19.70;96.00;;;;;;4993303;28;20137;-83
2022/08/06 11:48:59;;;;;;;1.35;0.88;;;19.80;95.80;;;;;;4993194;28;20089;-78
2022/08/06 11:51:47;;;;;;;3.35;1.20;;;19.70;96.20;;;;;;4993182;28;20042;-78
2022/08/06 11:54:18;;;;;;;2.13;0.90;;;19.70;96.30;;;;;;4993175;28;20056;-77
2022/08/06 11:57:06;;;;;;;2.80;1.30;;;19.70;95.90;;;;;;4992856;28;20054;-78
2022/08/06 11:59:33;;;;;;;3.28;1.20;;;19.80;95.80;;;;;;4993849;28;20050;-79
2022/08/06 12:02:04;;;;;;;2.85;1.30;;;19.80;95.80;;;;;;4993123;28;20046;-77
2022/08/06 12:04:42;;;;;;;3.15;1.27;;;19.70;96.30;;;;;;4994032;28;20430;-77
2022/08/06 12:07:14;;;;;;;1.75;1.00;;;19.80;96.30;;;;;;4981133;28;20446;-79
2022/08/06 12:09:39;;;;;;;2.00;1.10;;;19.80;95.80;;;;;;4981066;28;20046;-80
2022/08/06 12:12:37;;;;;;;2.95;1.17;;;19.80;95.30;;;;;;4980913;28;20294;-78
2022/08/06 12:15:12;;;;;;;1.63;1.00;;;19.80;95.60;;;;;;4997685;28;20073;-77
2022/08/06 12:17:57;;;;;;;3.63;1.25;;;19.70;95.50;;;;;;4996551;28;20050;-78
2022/08/06 12:20:36;;;;;;;2.33;1.30;;;19.70;95.70;;;;;;4996680;28;20483;-78
2022/08/06 12:23:05;;;;;;;2.40;1.20;;;20.20;95.40;;;;;;4981266;28;20439;-80
2022/08/06 12:25:32;;;;;;;4.18;1.10;;;19.70;95.00;;;;;;4997238;28;20598;-77
2022/08/06 12:27:58;;;;;;;2.25;1.10;;;19.70;94.90;;;;;;4980363;28;20105;-75
2022/08/06 12:30:24;;;;;;;2.50;1.13;;;19.70;94.90;;;;;;4980332;28;20475;-76
2022/08/06 12:33:02;;;;;;;4.47;1.05;;;19.70;94.60;;;;;;4980362;28;20048;-81
2022/08/06 12:35:28;;;;;;;2.75;1.20;;;19.80;94.30;;;;;;4980376;28;20589;-78
2022/08/06 12:37:54;;;;;;;2.13;1.10;;;19.70;94.30;;;;;;4980748;28;20375;-82
2022/08/06 12:40:26;;;;;;;2.13;1.40;;;19.70;94.20;;;;;;4996445;28;20046;-77
2022/08/06 12:42:53;;;;;;;1.97;1.40;;;19.70;94.00;;;;;;4965115;28;20050;-78
2022/08/06 12:45:23;;;;;;;2.28;1.40;;;19.60;94.10;;;;;;4996233;28;20289;-76
2022/08/06 12:48:10;;;;;;;1.77;1.30;;;19.70;94.00;;;;;;4980004;28;20133;-76
2022/08/06 12:50:41;;;;;;;1.80;1.27;;;19.70;94.10;;;;;;4996217;28;20412;-77
2022/08/06 12:53:13;;;;;;;3.20;1.67;;;19.70;93.40;;;;;;4996492;28;20085;-76
2022/08/06 12:55:45;;;;;;;3.13;1.48;;;19.90;93.20;;;;;;4996362;28;20050;-83
2022/08/06 12:58:15;;;;;;;2.63;1.58;;;20.00;93.10;;;;;;4979785;28;20105;-76
2022/08/06 13:00:42;;;;;;;3.45;1.45;;;20.10;92.80;;;;;;4995762;28;20056;-76
2022/08/06 13:03:09;;;;;;;2.70;1.48;;;20.20;92.10;;;;;;4964452;28;20378;-80
2022/08/06 13:05:36;;;;;;;3.75;1.98;;;20.30;92.20;;;;;;4963675;28;20137;-77
2022/08/06 13:08:03;;;;;;;1.77;1.10;;;20.40;91.70;;;;;;4979673;28;20053;-76
2022/08/06 13:10:29;;;;;;;3.08;1.42;;;20.40;91.50;;;;;;4979077;28;20130;-80